Home > Products > Valid Products > TAF

000
FTUS44 KMEG 041728
TAFTUP
TAF
KTUP 041728Z 0418/0518 26006KT P6SM SCT080
     FM042000 30014G20KT P6SM VCTS SCT070CB
     FM050000 35010KT P6SM SCT070
     FM050500 35005KT P6SM SKC
     FM051500 36016G22KT P6SM SKC=



000
FTUS44 KMEG 041728
TAFJBR
TAF
KJBR 041728Z 0418/0518 28019G27KT P6SM SCT080
     FM042300 32011KT P6SM SKC
     FM050100 33006KT P6SM SKC
     FM051400 34012G18KT P6SM SKC=



000
FTUS44 KMEG 041728
TAFMKL
TAF
KMKL 041728Z 0418/0518 26011G21KT P6SM VCTS SCT070CB
     FM042100 33019G27KT P6SM SCT070
     FM050300 33006KT P6SM SKC
     FM051500 34016G22KT P6SM FEW250=



000
FTUS44 KMEG 041728
TAFMEM
TAF
KMEM 041728Z 0418/0518 26012G19KT P6SM SCT100
     FM042200 33017G24KT P6SM SCT080
     FM050200 34006KT P6SM SKC
     FM051500 34014G20KT P6SM SCT250=



000
FTUS44 KMEG 041500 AAA
TAFMEM
TAF AMD
KMEM 041500Z 0415/0512 24009KT P6SM BKN070
     FM041900 31018G25KT P6SM BKN060
     FM042200 34015G23KT P6SM SCT080
     FM050200 34008KT P6SM SKC=



000
FTUS44 KMEG 041500 AAA
TAFMEM
TAF AMD
KMEM 041500Z 0415/0512 24009KT P6SM BKN070
     FM041900 31018G25KT P6SM BKN060
     FM042200 34015G23KT P6SM SCT080
     FM050200 34008KT P6SM SKC=



000
FTUS44 KMEG 041126
TAFMEM
TAF
KMEM 041126Z 0412/0512 25005KT P6SM SKC
     FM041500 26012G20KT P6SM SCT080
     FM041900 31018G25KT P6SM BKN060
     FM042200 34015G23KT P6SM SCT080
     FM050200 34008KT P6SM SKC=



000
FTUS44 KMEG 041126
TAFJBR
TAF
KJBR 041126Z 0412/0512 27005KT P6SM SKC
     FM041400 27015G25KT P6SM SKC
     FM041700 33015G25KT P6SM SCT080
     FM042300 34010G18KT P6SM SKC
     FM050100 32006KT P6SM SKC=



000
FTUS44 KMEG 041126
TAFMKL
TAF
KMKL 041126Z 0412/0512 23005KT P6SM SKC
     FM041500 26012G20KT P6SM SCT070
     FM041800 31018G28KT P6SM VCTS BKN050CB
     FM042100 34015G25KT P6SM SCT070
     FM050300 32006KT P6SM SKC=



000
FTUS44 KMEG 041126
TAFTUP
TAF
KTUP 041126Z 0412/0512 VRB03KT P6SM SKC
     FM041500 25008G16KT P6SM SCT070
     FM042000 33015G25KT P6SM VCTS BKN050CB
     FM050000 35012G20KT P6SM SCT070
     FM050500 01008KT P6SM SKC=



000
FTUS44 KMEG 041126
TAFMKL
TAF
KMKL 041126Z 0412/0512 23005KT P6SM SKC
     FM041500 26012G20KT P6SM SCT070
     FM041800 31018G28KT P6SM VCTS BKN050CB
     FM042100 34015G25KT P6SM SCT070
     FM050300 32006KT P6SM SKC=



000
FTUS44 KMEG 041126
TAFJBR
TAF
KJBR 041126Z 0412/0512 27005KT P6SM SKC
     FM041400 27015G25KT P6SM SKC
     FM041700 33015G25KT P6SM SCT080
     FM042300 34010G18KT P6SM SKC
     FM050100 32006KT P6SM SKC=



000
FTUS44 KMEG 041126
TAFTUP
TAF
KTUP 041126Z 0412/0512 VRB03KT P6SM SKC
     FM041500 25008G16KT P6SM SCT070
     FM042000 33015G25KT P6SM VCTS BKN050CB
     FM050000 35012G20KT P6SM SCT070
     FM050500 01008KT P6SM SKC=



000
FTUS44 KMEG 041126
TAFMEM
TAF
KMEM 041126Z 0412/0512 25005KT P6SM SKC
     FM041500 26012G20KT P6SM SCT080
     FM041900 31018G25KT P6SM BKN060
     FM042200 34015G23KT P6SM SCT080
     FM050200 34008KT P6SM SKC=



000
FTUS44 KMEG 040856 AAA
TAFMEM
TAF AMD
KMEM 040856Z 0409/0506 VRB03KT P6SM SKC
     FM041300 25006KT P6SM SKC
     FM041500 26014G23KT P6SM SCT050
     FM041900 30018G25KT P6SM VCSH BKN050
     FM050000 33013G20KT P6SM FEW050
     FM050200 35009KT P6SM SCT070=



000
FTUS44 KMEG 040530
TAFMEM
TAF
KMEM 040530Z 0406/0506 30003KT P6SM SKC
     FM041300 26008KT P6SM SKC
     FM041500 26014G23KT P6SM SCT050
     FM041900 30018G25KT P6SM VCSH BKN050
     FM050000 33013G20KT P6SM FEW050
     FM050200 35009KT P6SM SCT070=



000
FTUS44 KMEG 040530
TAFMKL
TAF
KMKL 040530Z 0406/0506 VRB03KT P6SM SKC
     FM041400 26010KT P6SM FEW050
     FM041600 29015G23KT P6SM VCSH BKN070
     FM041900 31020G28KT P6SM VCTS BKN040CB
     FM042300 33020KT P6SM FEW040
     FM050300 30008KT P6SM SKC=



000
FTUS44 KMEG 040530
TAFMKL
TAF
KMKL 040530Z 0406/0506 VRB03KT P6SM SKC
     FM041400 26010KT P6SM FEW050
     FM041600 29015G23KT P6SM VCSH BKN070
     FM041900 31020G28KT P6SM VCTS BKN040CB
     FM042300 33020KT P6SM FEW040
     FM050300 30008KT P6SM SKC=



000
FTUS44 KMEG 040530
TAFJBR
TAF
KJBR 040530Z 0406/0506 27004KT P6SM SKC
     FM041400 27016G22KT P6SM SKC
     FM041700 30016G24KT P6SM FEW050
     FM042300 32010G21KT P6SM SKC
     FM050000 33008KT P6SM SKC=



000
FTUS44 KMEG 040530
TAFMEM
TAF
KMEM 040530Z 0406/0506 30003KT P6SM SKC
     FM041300 26008KT P6SM SKC
     FM041500 26014G23KT P6SM SCT050
     FM041900 30018G25KT P6SM VCSH BKN050
     FM050000 33013G20KT P6SM FEW050
     FM050200 35009KT P6SM SCT070=



000
FTUS44 KMEG 040530
TAFTUP
TAF
KTUP 040530Z 0406/0506 VRB03KT P6SM SKC
     FM041500 30011G17KT P6SM SKC
     FM041800 32016G24KT P6SM FEW060
     FM042100 35015G22KT P6SM VCTS BKN040CB
     FM050000 35011G18KT P6SM SKC
     FM050100 01008KT P6SM SKC=



000
FTUS44 KMEG 040530
TAFJBR
TAF
KJBR 040530Z 0406/0506 27004KT P6SM SKC
     FM041400 27016G22KT P6SM SKC
     FM041700 30016G24KT P6SM FEW050
     FM042300 32010G21KT P6SM SKC
     FM050000 33008KT P6SM SKC=



000
FTUS44 KMEG 040530
TAFTUP
TAF
KTUP 040530Z 0406/0506 VRB03KT P6SM SKC
     FM041500 30011G17KT P6SM SKC
     FM041800 32016G24KT P6SM FEW060
     FM042100 35015G22KT P6SM VCTS BKN040CB
     FM050000 35011G18KT P6SM SKC
     FM050100 01008KT P6SM SKC=



000
FTUS44 KMEG 040306 AAA
TAFMEM
TAF AMD
KMEM 040306Z 0403/0424 30003KT P6SM SKC
     FM041300 26008KT P6SM SKC
     FM041500 29014G23KT P6SM SCT050
     FM042000 32018G25KT P6SM VCSH BKN050
     FM042300 35020G26KT P6SM SCT050=



000
FTUS44 KMEG 032343
TAFTUP
TAF
KTUP 032343Z 0400/0424 29007KT P6SM SCT035 BKN050
     FM040100 VRB03KT P6SM FEW060
     FM041500 30011G17KT P6SM SKC
     FM041800 32016G24KT P6SM FEW060
     FM042100 35015G22KT P6SM VCTS BKN040CB=



000
FTUS44 KMEG 032343
TAFJBR
TAF
KJBR 032343Z 0400/0424 27007KT P6SM SCT035 BKN050
     FM040100 VRB03KT P6SM SKC
     FM041400 30011G17KT P6SM SKC
     FM041700 30016G24KT P6SM FEW050
     FM042300 32010KT P6SM SKC=



000
FTUS44 KMEG 032343
TAFMEM
TAF
KMEM 032343Z 0400/0424 33007KT P6SM SCT040 SCT060
     FM040100 30003KT P6SM FEW060
     FM041300 26008KT P6SM SKC
     FM041500 29014G23KT P6SM SCT050
     FM042000 32018G25KT P6SM VCSH BKN050
     FM042300 35020G26KT P6SM SCT050=



000
FTUS44 KMEG 032343
TAFMKL
TAF
KMKL 032343Z 0400/0424 34007KT P6SM SCT035 BKN060
     FM040100 VRB03KT P6SM FEW060
     FM041400 26010KT P6SM FEW050
     FM041600 29015G23KT P6SM BKN040
     FM041900 31020G28KT P6SM VCTS BKN040CB
     FM042300 33023KT P6SM SCT040=



000
FTUS44 KMEG 032059 AAB
TAFMEM
TAF AMD
KMEM 032059Z 0321/0418 32009KT P6SM FEW035 OVC060
     FM040100 30003KT P6SM FEW060
     FM041300 26008KT P6SM SKC
     FM041500 29014G23KT P6SM BKN040=



000
FTUS44 KMEG 032059 AAB
TAFMEM
TAF AMD
KMEM 032059Z 0321/0418 32009KT P6SM FEW035 OVC060
     FM040100 30003KT P6SM FEW060
     FM041300 26008KT P6SM SKC
     FM041500 29014G23KT P6SM BKN040=



000
FTUS44 KMEG 031953 AAA
TAFMEM
TAF AMD
KMEM 031953Z 0320/0418 32009KT P6SM FEW035 BKN060
     FM040100 30003KT P6SM FEW060
     FM041300 26008KT P6SM SKC
     FM041500 29014G23KT P6SM BKN040=



000
FTUS44 KMEG 031950 AAA
TAFMKL
TAF AMD
KMKL 031950Z 0320/0418 34007KT P6SM SCT035 BKN060
     FM040100 VRB02KT P6SM FEW060
     FM041400 26010KT P6SM FEW050
     FM041600 29015G23KT P6SM BKN040=



000
FTUS44 KMEG 031950 AAA
TAFMKL
TAF AMD
KMKL 031950Z 0320/0418 34007KT P6SM SCT035 BKN060
     FM040100 VRB02KT P6SM FEW060
     FM041400 26010KT P6SM FEW050
     FM041600 29015G23KT P6SM BKN040=



000
FTUS44 KMEG 031724
TAFMKL
TAF
KMKL 031724Z 0318/0418 34007KT P6SM SCT035 BKN050
     FM040100 VRB02KT P6SM FEW060
     FM041400 26010KT P6SM FEW060
     FM041600 29015G23KT P6SM SKC=



000
FTUS44 KMEG 031724
TAFJBR
TAF
KJBR 031724Z 0318/0418 33005KT P6SM SCT035 BKN050
     FM040100 VRB03KT P6SM SKC
     FM041400 30011G17KT P6SM SKC=



000
FTUS44 KMEG 031724
TAFTUP
TAF
KTUP 031724Z 0318/0418 34007KT P6SM SCT035 BKN050
     FM040100 VRB03KT P6SM FEW060
     FM041500 30011G17KT P6SM SKC=



000
FTUS44 KMEG 031724
TAFMEM
TAF
KMEM 031724Z 0318/0418 34007KT P6SM SCT035 BKN050
     FM040100 30003KT P6SM FEW060
     FM041300 26008KT P6SM FEW060
     FM041500 29014G23KT P6SM SKC=



000
FTUS44 KMEG 031724
TAFMKL
TAF
KMKL 031724Z 0318/0418 34007KT P6SM SCT035 BKN050
     FM040100 VRB02KT P6SM FEW060
     FM041400 26010KT P6SM FEW060
     FM041600 29015G23KT P6SM SKC=



000
FTUS44 KMEG 031724
TAFMEM
TAF
KMEM 031724Z 0318/0418 34007KT P6SM SCT035 BKN050
     FM040100 30003KT P6SM FEW060
     FM041300 26008KT P6SM FEW060
     FM041500 29014G23KT P6SM SKC=



000
FTUS44 KMEG 031724
TAFTUP
TAF
KTUP 031724Z 0318/0418 34007KT P6SM SCT035 BKN050
     FM040100 VRB03KT P6SM FEW060
     FM041500 30011G17KT P6SM SKC=



000
FTUS44 KMEG 031724
TAFJBR
TAF
KJBR 031724Z 0318/0418 33005KT P6SM SCT035 BKN050
     FM040100 VRB03KT P6SM SKC
     FM041400 30011G17KT P6SM SKC=



000
FTUS44 KMEG 031428 AAA
TAFMEM
TAF AMD
KMEM 031428Z 0314/0412 36007KT P6SM SCT018 BKN060
     FM031600 35006KT P6SM SCT035 BKN050
     FM040300 30004KT P6SM SCT050=



000
FTUS44 KMEG 031428 AAA
TAFMEM
TAF AMD
KMEM 031428Z 0314/0412 36007KT P6SM SCT018 BKN060
     FM031600 35006KT P6SM SCT035 BKN050
     FM040300 30004KT P6SM SCT050=



000
FTUS44 KMEG 031348 AAB
TAFTUP
TAF AMD
KTUP 031348Z 0314/0412 36008KT P6SM BKN009
     FM031500 02008KT P6SM FEW015 SCT060
     FM031800 33008KT P6SM BKN050
     FM040300 VRB03KT P6SM SCT050=



000
FTUS44 KMEG 031231 AAA
TAFTUP
TAF AMD
KTUP 031231Z 0313/0412 VRB03KT 6SM BR BKN050
      TEMPO 0313/0314 3SM BR
     FM031500 36006KT P6SM SCT015 BKN050
     FM031800 33008KT P6SM BKN050
     FM040300 VRB03KT P6SM SCT050=



000
FTUS44 KMEG 031130
TAFTUP
TAF
KTUP 031130Z 0312/0412 VRB03KT 6SM BR BKN050
      TEMPO 0312/0314 1SM BR BKN003
     FM031500 36006KT P6SM SCT015 BKN050
     FM031800 33008KT P6SM BKN050
     FM040300 VRB03KT P6SM SCT050=



000
FTUS44 KMEG 031130
TAFJBR
TAF
KJBR 031130Z 0312/0412 33006KT P6SM SCT025 BKN060
     FM031600 33007KT P6SM SCT035 BKN050
     FM040100 VRB03KT P6SM SCT050=



000
FTUS44 KMEG 031130
TAFMEM
TAF
KMEM 031130Z 0312/0412 36005KT P6SM FEW030 BKN060
     FM031600 35008KT P6SM SCT035 BKN050
     FM040300 30004KT P6SM SCT050=



000
FTUS44 KMEG 031130
TAFMKL
TAF
KMKL 031130Z 0312/0412 36006KT P6SM SCT035 BKN045
     FM031600 34007KT P6SM SCT035 BKN050
     FM040400 VRB03KT P6SM SCT050=



000
FTUS44 KMEG 031130
TAFMEM
TAF
KMEM 031130Z 0312/0412 36005KT P6SM FEW030 BKN060
     FM031600 35008KT P6SM SCT035 BKN050
     FM040300 30004KT P6SM SCT050=



000
FTUS44 KMEG 031130
TAFTUP
TAF
KTUP 031130Z 0312/0412 VRB03KT 6SM BR BKN050
      TEMPO 0312/0314 1SM BR BKN003
     FM031500 36006KT P6SM SCT015 BKN050
     FM031800 33008KT P6SM BKN050
     FM040300 VRB03KT P6SM SCT050=



000
FTUS44 KMEG 031130
TAFMKL
TAF
KMKL 031130Z 0312/0412 36006KT P6SM SCT035 BKN045
     FM031600 34007KT P6SM SCT035 BKN050
     FM040400 VRB03KT P6SM SCT050=



000
FTUS44 KMEG 031130
TAFJBR
TAF
KJBR 031130Z 0312/0412 33006KT P6SM SCT025 BKN060
     FM031600 33007KT P6SM SCT035 BKN050
     FM040100 VRB03KT P6SM SCT050=



000
FTUS44 KMEG 030859 AAA
TAFTUP
TAF AMD
KTUP 030859Z 0309/0406 VRB03KT P6SM BKN070
      TEMPO 0310/0314 3SM BR
     FM031400 02005KT P6SM SCT020
     FM031900 36011KT P6SM BKN035
     FM040200 35003KT P6SM OVC100=



000
FTUS44 KMEG 030857 AAA
TAFMKL
TAF AMD
KMKL 030857Z 0309/0406 36006KT P6SM SCT035 BKN050
     FM031500 34007KT P6SM FEW010 BKN025
     FM031800 32010KT P6SM SCT025 OVC040
     FM040100 34006KT P6SM BKN250=



000
FTUS44 KMEG 030857 AAA
TAFMKL
TAF AMD
KMKL 030857Z 0309/0406 36006KT P6SM SCT035 BKN050
     FM031500 34007KT P6SM FEW010 BKN025
     FM031800 32010KT P6SM SCT025 OVC040
     FM040100 34006KT P6SM BKN250=



000
FTUS44 KMEG 030856 AAA
TAFMEM
TAF AMD
KMEM 030856Z 0309/0406 36007KT P6SM BKN060
     FM031600 35007KT P6SM SCT025 BKN040
     FM040100 32003KT P6SM BKN250=



000
FTUS44 KMEG 030531
TAFJBR
TAF
KJBR 030531Z 0306/0406 33006KT P6SM OVC050
     FM031500 36005KT P6SM SCT025
     FM031800 33007KT P6SM SCT035 OVC040
     FM040100 33004KT P6SM BKN250=



000
FTUS44 KMEG 030531
TAFTUP
TAF
KTUP 030531Z 0306/0406 34004KT P6SM OVC025
      TEMPO 0310/0314 5SM BR BKN007
     FM031400 02005KT P6SM SCT020
     FM031900 36011KT P6SM BKN035
     FM040200 35003KT P6SM OVC100=



000
FTUS44 KMEG 030531
TAFMKL
TAF
KMKL 030531Z 0306/0406 02005KT P6SM OVC050
      TEMPO 0308/0312 1SM BR
     FM031500 34007KT P6SM FEW010 BKN025
     FM031800 32010KT P6SM SCT025 OVC040
     FM040100 34006KT P6SM BKN250=



000
FTUS44 KMEG 030531
TAFMEM
TAF
KMEM 030531Z 0306/0406 36005KT P6SM BKN050 OVC100
     FM031100 01004KT P6SM OVC050
     FM031600 35007KT P6SM SCT025 BKN040
     FM040100 32003KT P6SM BKN250=



000
FTUS44 KMEG 030259 AAB
TAFMEM
TAF AMD
KMEM 030259Z 0303/0324 36005KT P6SM FEW030 BKN040 OVC120
     FM031100 01004KT P6SM OVC030
     FM031400 35007KT P6SM BKN040
     FM031800 33008KT P6SM OVC050=



000
FTUS44 KMEG 030259 AAB
TAFMEM
TAF AMD
KMEM 030259Z 0303/0324 36005KT P6SM FEW030 BKN040 OVC120
     FM031100 01004KT P6SM OVC030
     FM031400 35007KT P6SM BKN040
     FM031800 33008KT P6SM OVC050=



000
FTUS44 KMEG 030201 AAA
TAFMEM
TAF AMD
KMEM 030201Z 0302/0324 35005KT P6SM FEW030 BKN040 OVC120
     FM030400 35004KT P6SM SCT025 OVC080
     FM031100 01004KT P6SM OVC030
     FM031400 35007KT P6SM BKN040
     FM031800 33008KT P6SM OVC050=



000
FTUS44 KMEG 022339
TAFMKL
TAF
KMKL 022339Z 0300/0324 02005KT P6SM SCT015 BKN025
     FM030500 00000KT 3SM BR OVC020
      TEMPO 0308/0312 1SM BR BKN004
     FM031500 34007KT P6SM SCT010 BKN025
     FM031800 32010KT P6SM OVC040=



000
FTUS44 KMEG 022339
TAFMEM
TAF
KMEM 022339Z 0300/0324 35005KT P6SM BKN025 OVC120
     FM030400 35004KT P6SM SCT025 OVC080
     FM031100 01004KT P6SM OVC030
     FM031400 35007KT P6SM BKN040
     FM031800 33008KT P6SM OVC050=



000
FTUS44 KMEG 022339
TAFJBR
TAF
KJBR 022339Z 0300/0324 33006KT P6SM FEW030 BKN040
     FM030200 36006KT P6SM BKN035
     FM031200 36005KT P6SM OVC030
     FM031800 33007KT P6SM BKN050=



000
FTUS44 KMEG 022339
TAFTUP
TAF
KTUP 022339Z 0300/0324 34004KT P6SM BKN009 OVC020
     FM030500 01002KT 6SM BR OVC005
      TEMPO 0310/0314 1SM BR BKN002
     FM031400 02005KT P6SM OVC020
     FM031900 36011KT P6SM BKN025
     FM032200 36011KT P6SM OVC050=



000
FTUS44 KMEG 022147 AAA
TAFMKL
TAF AMD
KMKL 022147Z 0222/0318 02005KT P6SM BKN010 OVC015
     FM030000 34003KT 6SM BR OVC015
     FM030500 00000KT 3SM BR SCT030
      TEMPO 0308/0312 1SM BR BKN004
     FM031500 34007KT P6SM SCT010 BKN025=



000
FTUS44 KMEG 022144 AAA
TAFTUP
TAF AMD
KTUP 022144Z 0222/0318 VRB05KT P6SM VCSH BKN012 OVC020
     FM030000 02004KT P6SM BKN015
     FM030400 01002KT 6SM BR SCT100
      TEMPO 0310/0314 1SM BR SCT002
     FM031400 02005KT P6SM BKN025=



000
FTUS44 KMEG 022041 AAB
TAFMEM
TAF AMD
KMEM 022041Z 0221/0318 35004KT P6SM BKN019 OVC040
     FM022200 35004KT P6SM SCT025 BKN050
     FM030400 35004KT P6SM FEW030 SCT150
     FM031100 01004KT P6SM BKN030
     FM031400 35007KT P6SM BKN040=



000
FTUS44 KMEG 021903 AAA
TAFMEM
TAF AMD
KMEM 021903Z 0219/0318 35005KT P6SM BKN015 OVC060
     FM022000 35005KT P6SM SCT025 BKN060
     FM030400 35004KT P6SM FEW030 SCT150
     FM031100 01005KT P6SM BKN030
     FM031400 35007KT P6SM BKN040=



000
FTUS44 KMEG 021735
TAFMKL
TAF
KMKL 021735Z 0218/0318 02005KT P6SM BKN005 BKN015 OVC050
     FM022100 34007KT P6SM VCSH BKN018 OVC150
     FM030000 34003KT 6SM BR SCT150
     FM030500 00000KT 3SM BR SCT030
      TEMPO 0308/0312 1SM BR BKN004
     FM031500 34007KT P6SM SCT010 BKN025=



000
FTUS44 KMEG 021735
TAFMEM
TAF
KMEM 021735Z 0218/0318 03007KT P6SM SCT009 BKN035 OVC150
      TEMPO 0218/0219 OVC009
     FM022000 35006KT P6SM BKN040 BKN100
     FM030400 35005KT P6SM SCT150
     FM031100 01005KT P6SM BKN030
     FM031400 35007KT P6SM BKN040=



000
FTUS44 KMEG 021735
TAFJBR
TAF
KJBR 021735Z 0218/0318 35006KT P6SM FEW030 BKN060
     FM030200 36004KT P6SM BKN060 OVC150=



000
FTUS44 KMEG 021735
TAFTUP
TAF
KTUP 021735Z 0218/0318 31006KT 6SM -SHRA VCTS SCT005 BKN030CB
      TEMPO 0218/0220 2SM TSRA
     FM022000 35006KT 5SM -RA SCT030 OVC050
     FM030000 02004KT P6SM BKN015
     FM030400 01002KT 6SM BR SCT100
      TEMPO 0310/0314 1SM BR SCT002
     FM031400 02005KT P6SM BKN025=



000
FTUS44 KMEG 021735
TAFMKL
TAF
KMKL 021735Z 0218/0318 02005KT P6SM BKN005 BKN015 OVC050
     FM022100 34007KT P6SM VCSH BKN018 OVC150
     FM030000 34003KT 6SM BR SCT150
     FM030500 00000KT 3SM BR SCT030
      TEMPO 0308/0312 1SM BR BKN004
     FM031500 34007KT P6SM SCT010 BKN025=



000
FTUS44 KMEG 021735
TAFMEM
TAF
KMEM 021735Z 0218/0318 03007KT P6SM SCT009 BKN035 OVC150
      TEMPO 0218/0219 OVC009
     FM022000 35006KT P6SM BKN040 BKN100
     FM030400 35005KT P6SM SCT150
     FM031100 01005KT P6SM BKN030
     FM031400 35007KT P6SM BKN040=



000
FTUS44 KMEG 021735
TAFTUP
TAF
KTUP 021735Z 0218/0318 31006KT 6SM -SHRA VCTS SCT005 BKN030CB
      TEMPO 0218/0220 2SM TSRA
     FM022000 35006KT 5SM -RA SCT030 OVC050
     FM030000 02004KT P6SM BKN015
     FM030400 01002KT 6SM BR SCT100
      TEMPO 0310/0314 1SM BR SCT002
     FM031400 02005KT P6SM BKN025=



000
FTUS44 KMEG 021735
TAFJBR
TAF
KJBR 021735Z 0218/0318 35006KT P6SM FEW030 BKN060
     FM030200 36004KT P6SM BKN060 OVC150=



000
FTUS44 KMEG 021655 AAA
TAFMKL
TAF AMD
KMKL 021655Z 0217/0312 02005KT P6SM -RA BKN005 OVC050
      TEMPO 0217/0218 5SM -RA
     FM022000 34007KT P6SM VCSH BKN040 OVC150
     FM030500 35005KT P6SM BKN050=



000
FTUS44 KMEG 021613 AAB
TAFMEM
TAF AMD
KMEM 021613Z 0216/0312 02007KT P6SM FEW009 BKN018 OVC040
      TEMPO 0216/0217 BKN009 OVC018
     FM021730 03007KT P6SM BKN040 OVC150
     FM030400 35005KT P6SM BKN035=



000
FTUS44 KMEG 021456 AAA
TAFMEM
TAF AMD
KMEM 021456Z 0215/0312 06011KT 6SM -RA FEW010 OVC040
      TEMPO 0215/0216 3SM RA
     FM021600 03007KT P6SM VCSH BKN040 OVC150
     FM030400 35005KT P6SM BKN035=



000
FTUS44 KMEG 021416 AAB
TAFTUP
TAF AMD
KTUP 021416Z 0214/0312 06005KT P6SM FEW006 OVC050
      TEMPO 0214/0215 3SM BR OVC005
     FM021530 30005KT P6SM -SHRA VCTS SCT015 BKN035CB OVC050
      TEMPO 0216/0220 1SM TSRA BKN015CB
     FM022100 29006KT 5SM -SHRA BR SCT030 OVC050
     FM030300 02006KT P6SM OVC035=



000
FTUS44 KMEG 021140 AAA
TAFTUP
TAF AMD
KTUP 021140Z 0212/0312 06005KT 5SM BR BKN050 OVC060
      TEMPO 0212/0214 1SM BR OVC005
     FM021400 30005KT P6SM -SHRA VCTS SCT015 BKN035CB OVC050
      TEMPO 0217/0221 3SM -TSRA BKN015CB
     FM022100 29006KT 5SM -SHRA BR SCT030 OVC050
     FM030300 02006KT P6SM OVC035=



000
FTUS44 KMEG 021125
TAFMKL
TAF
KMKL 021125Z 0212/0312 02008KT P6SM -SHRA VCTS BKN035CB OVC045
      TEMPO 0212/0215 4SM -TSRA BKN020CB
     FM021700 34007KT P6SM VCSH BKN040 OVC150
     FM030500 35005KT P6SM BKN050=



000
FTUS44 KMEG 021125
TAFTUP
TAF
KTUP 021125Z 0212/0312 06005KT P6SM BKN050 OVC060
     FM021400 30005KT P6SM -SHRA VCTS SCT015 BKN035CB OVC050
      TEMPO 0217/0221 4SM -TSRA BKN015CB
     FM022100 29006KT 5SM -SHRA BR SCT030 OVC050
     FM030300 02006KT P6SM OVC035=



000
FTUS44 KMEG 021125
TAFMEM
TAF
KMEM 021125Z 0212/0312 03012KT P6SM -SHRA VCSH BKN035 OVC045
      TEMPO 0212/0214 5SM -TSRA BKN020CB
     FM021600 36007KT P6SM VCSH BKN040 OVC150
     FM030400 35007KT P6SM BKN035=



000
FTUS44 KMEG 021125
TAFJBR
TAF
KJBR 021125Z 0212/0312 03007KT P6SM -SHRA VCTS BKN035CB OVC050
      TEMPO 0212/0215 4SM -TSRA BKN020CB
     FM021500 35006KT P6SM BKN050 OVC150
     FM022000 32007KT P6SM VCSH BKN050 OVC150
     FM030300 34005KT P6SM BKN050=



000
FTUS44 KMEG 020850 AAA
TAFMEM
TAF AMD
KMEM 020850Z 0209/0306 01008KT P6SM VCSH BKN035
     FM021200 02007KT P6SM VCSH BKN025 OVC040
      TEMPO 0213/0215 -TSRA BKN020CB
     FM021600 02006KT P6SM VCSH BKN040 OVC150
     FM030200 35009KT P6SM BKN040=



000
FTUS44 KMEG 020850 AAA
TAFMEM
TAF AMD
KMEM 020850Z 0209/0306 01008KT P6SM VCSH BKN035
     FM021200 02007KT P6SM VCSH BKN025 OVC040
      TEMPO 0213/0215 -TSRA BKN020CB
     FM021600 02006KT P6SM VCSH BKN040 OVC150
     FM030200 35009KT P6SM BKN040=



000
FTUS44 KMEG 020712 AAA
TAFTUP
TAF AMD
KTUP 020712Z 0207/0306 VRB03KT 5SM BR FEW035 BKN050
      TEMPO 0207/0211 OVC005
     FM021100 VRB03KT P6SM -SHRA VCTS SCT015 BKN035CB
      TEMPO 0215/0218 VRB10KT 5SM -TSRA BKN015CB
     FM021800 02006KT 5SM -SHRA BR SCT030 OVC050
     FM030300 36006KT P6SM SCT030=



000
FTUS44 KMEG 020522
TAFMEM
TAF
KMEM 020522Z 0206/0306 35003KT P6SM BKN035
     FM021200 02007KT P6SM VCSH BKN025 OVC040
      TEMPO 0213/0215 -TSRA BKN020CB
     FM021600 02006KT P6SM VCSH BKN040 OVC150
     FM030200 35009KT P6SM BKN040=



000
FTUS44 KMEG 020522
TAFJBR
TAF
KJBR 020522Z 0206/0306 35007KT P6SM SCT050
     FM021800 32006KT P6SM FEW050 OVC150
     FM030000 32006KT P6SM SCT030=



000
FTUS44 KMEG 020522
TAFMKL
TAF
KMKL 020522Z 0206/0306 VRB03KT P6SM BKN040
     FM021100 36005KT 6SM -SHRA VCTS BKN025CB OVC040
      TEMPO 0212/0215 -TSRA BKN020CB
     FM022000 32010KT P6SM VCSH OVC050
     FM030300 32005KT P6SM BKN050=



000
FTUS44 KMEG 020522
TAFTUP
TAF
KTUP 020522Z 0206/0306 VRB03KT P6SM FEW035 BKN050
     FM021100 VRB03KT P6SM -SHRA VCTS SCT015 BKN035CB
      TEMPO 0215/0218 VRB10KT 5SM -TSRA BKN015CB
     FM021800 02006KT 5SM -SHRA BR SCT030 OVC050
     FM030300 36006KT P6SM SCT030=



000
FTUS44 KMEG 020256 AAA
TAFMEM
TAF AMD
KMEM 020256Z 0203/0224 VRB02KT P6SM VCSH BKN030
     FM020700 35006KT P6SM VCSH BKN035 OVC070
     FM021400 02007KT 6SM -SHRA VCTS BKN025CB OVC040
     FM021600 02006KT P6SM VCSH BKN040 OVC150=



000
FTUS44 KMEG 012332
TAFMEM
TAF
KMEM 012332Z 0200/0224 VRB02KT P6SM SCT070
     FM020700 35006KT P6SM VCSH BKN035 OVC070
     FM021400 02007KT 6SM -SHRA VCTS BKN025CB OVC040
     FM021600 02006KT P6SM VCSH BKN040 OVC150=



000
FTUS44 KMEG 012332
TAFJBR
TAF
KJBR 012332Z 0200/0224 32005KT P6SM SKC
     FM020700 36006KT P6SM BKN100
     FM021800 01008KT P6SM FEW050 OVC150=



000
FTUS44 KMEG 012332
TAFTUP
TAF
KTUP 012332Z 0200/0224 16004KT P6SM FEW070
     FM020800 VRB03KT P6SM VCSH FEW035 BKN050
     FM021100 21005KT P6SM -SHRA VCTS SCT015 BKN035CB
      TEMPO 0214/0218 VRB10KT 5SM -TSRA BKN015CB
     FM021800 02006KT P6SM -SHRA SCT030 OVC050=



000
FTUS44 KMEG 012332
TAFMKL
TAF
KMKL 012332Z 0200/0224 VRB03KT P6SM SCT070 OVC150
     FM020800 36005KT P6SM VCSH BKN035 OVC070
     FM021500 01007KT 6SM -SHRA VCTS BKN025CB OVC040=



000
FTUS44 KMEG 012059 AAB
TAFMEM
TAF AMD
KMEM 012059Z 0121/0218 18008KT P6SM VCSH SCT025 BKN040 BKN200
     FM012200 23006KT P6SM VCSH SCT025 BKN040 OVC150
     FM020200 VRB05KT P6SM SCT035 OVC070
     FM020800 35006KT P6SM VCSH BKN035 OVC070
     FM021400 01008KT 6SM -SHRA VCTS BKN025CB OVC040=



000
FTUS44 KMEG 012043 AAB
TAFMKL
TAF AMD
KMKL 012043Z 0121/0218 VRB05KT P6SM VCTS BKN035CB BKN200
     FM012200 VRB04KT P6SM SCT035 OVC150
     FM020800 36004KT P6SM VCSH BKN035 OVC070
     FM021500 01007KT 6SM -SHRA VCTS BKN025CB OVC040=



000
FTUS44 KMEG 012043 AAB
TAFMKL
TAF AMD
KMKL 012043Z 0121/0218 VRB05KT P6SM VCTS BKN035CB BKN200
     FM012200 VRB04KT P6SM SCT035 OVC150
     FM020800 36004KT P6SM VCSH BKN035 OVC070
     FM021500 01007KT 6SM -SHRA VCTS BKN025CB OVC040=



000
FTUS44 KMEG 012002 AAA
TAFMKL
TAF AMD
KMKL 012002Z 0120/0218 20008KT P6SM VCTS BKN035CB BKN200
      TEMPO 0120/0122 2SM TSRA BKN025CB
     FM012200 24006KT P6SM SCT035 OVC150
     FM020800 36004KT P6SM VCSH BKN035 OVC070
     FM021500 01007KT 6SM -SHRA VCTS BKN025CB OVC040=



000
FTUS44 KMEG 012001 AAA
TAFMEM
TAF AMD
KMEM 012001Z 0120/0218 20010G20KT P6SM -RA VCTS BKN030CB BKN200
     FM012200 VRB05KT P6SM VCTS BKN035CB OVC150
     FM020200 VRB05KT P6SM SCT035 OVC070
     FM020800 35006KT P6SM VCSH BKN035 OVC070
     FM021400 01008KT 6SM -SHRA VCTS BKN025CB OVC040=



    US Dept of Commerce
    National Oceanic and Atmospheric Administration
    National Weather Service
    1325 East West Highway
    Silver Spring, MD 20910
    Page Author: NWS Internet Services Team
Disclaimer
Information Quality
Credits
Glossary
Privacy Policy
Freedom of Information Act (FOIA)
About Us
Career Opportunities